Time;durP1;ratioP1;P1;durP2;ratioP2;P2;SDS_P1;SDS_P2;PMS_P1;PMS_P2;Temp;Humidity;BMP_temperature;BMP_pressure;BME280_temperature;BME280_humidity;BME280_pressure;Samples;Min_cycle;Max_cycle;Signal;HPM_P1;HPM_P2
2023/11/09 00:00:29;;;;;;;3.00;2.10;;;9.60;99.90;;;;;;5104844;28;20239;-62
2023/11/09 00:02:55;;;;;;;4.83;2.33;;;9.60;99.90;;;;;;5104375;28;20458;-62
2023/11/09 00:05:24;;;;;;;2.30;1.92;;;9.60;99.90;;;;;;5105698;28;20444;-62
2023/11/09 00:07:50;;;;;;;3.10;2.80;;;9.70;99.90;;;;;;5105120;28;20200;-62
2023/11/09 00:10:17;;;;;;;2.67;2.13;;;9.70;99.90;;;;;;5099699;28;20276;-62
2023/11/09 00:12:50;;;;;;;3.30;2.07;;;9.70;99.90;;;;;;5098895;28;20460;-61
2023/11/09 00:15:17;;;;;;;3.35;2.63;;;9.70;99.90;;;;;;5100093;28;20520;-63
2023/11/09 00:17:44;;;;;;;3.47;2.25;;;9.60;99.90;;;;;;5097910;28;20224;-65
2023/11/09 00:20:12;;;;;;;2.53;2.33;;;9.70;99.90;;;;;;5099025;28;20253;-63
2023/11/09 00:22:40;;;;;;;5.43;2.83;;;9.70;99.90;;;;;;5098947;28;20466;-63
2023/11/09 00:25:07;;;;;;;3.67;2.58;;;9.70;99.90;;;;;;5098796;28;20438;-63
2023/11/09 00:27:34;;;;;;;5.60;2.50;;;9.70;99.90;;;;;;5098986;28;20301;-62
2023/11/09 00:30:01;;;;;;;4.83;2.23;;;9.60;99.90;;;;;;5103351;28;20238;-62
2023/11/09 00:32:28;;;;;;;2.40;2.20;;;9.60;99.90;;;;;;5103662;28;20469;-63
2023/11/09 00:34:55;;;;;;;2.50;2.30;;;9.60;99.90;;;;;;5101082;28;20824;-62
2023/11/09 00:37:23;;;;;;;3.55;2.53;;;9.60;99.90;;;;;;5100825;28;20285;-63
2023/11/09 00:39:51;;;;;;;2.57;2.20;;;9.60;99.90;;;;;;5104361;28;20214;-63
2023/11/09 00:42:18;;;;;;;3.40;2.30;;;9.60;99.90;;;;;;5104763;28;20458;-64
2023/11/09 00:44:44;;;;;;;2.87;2.27;;;9.60;99.90;;;;;;5102714;28;20814;-63
2023/11/09 00:47:11;;;;;;;3.63;2.00;;;9.50;99.90;;;;;;5101144;28;20959;-63
2023/11/09 00:49:38;;;;;;;3.40;2.10;;;9.50;99.90;;;;;;5100284;28;20973;-64
2023/11/09 00:52:05;;;;;;;2.77;2.40;;;9.50;99.90;;;;;;5101528;28;20224;-62
2023/11/09 00:54:31;;;;;;;2.33;2.13;;;9.40;99.90;;;;;;5103474;28;20438;-63
2023/11/09 00:57:00;;;;;;;2.88;2.67;;;9.40;99.90;;;;;;5103067;28;20586;-63
2023/11/09 00:59:26;;;;;;;3.72;2.10;;;9.40;99.90;;;;;;5102689;28;20207;-63
2023/11/09 01:01:53;;;;;;;3.88;2.35;;;9.40;99.90;;;;;;5105307;28;20221;-64
2023/11/09 01:04:20;;;;;;;4.65;2.25;;;9.40;99.90;;;;;;5107999;28;20222;-63
2023/11/09 01:06:47;;;;;;;3.58;2.58;;;9.40;99.90;;;;;;5107473;28;20581;-63
2023/11/09 01:09:14;;;;;;;5.05;2.70;;;9.30;99.90;;;;;;5106773;28;20197;-63
2023/11/09 01:11:41;;;;;;;2.45;2.25;;;9.30;99.90;;;;;;5106279;28;20262;-62
2023/11/09 01:14:09;;;;;;;5.63;2.65;;;9.30;99.90;;;;;;5104912;28;20615;-63
2023/11/09 01:16:36;;;;;;;2.95;2.05;;;9.30;99.90;;;;;;5102428;28;20200;-63
2023/11/09 01:19:03;;;;;;;2.80;2.30;;;9.30;99.90;;;;;;5100549;28;20228;-62
2023/11/09 01:21:31;;;;;;;3.65;2.80;;;9.20;99.90;;;;;;5099493;28;20204;-64
2023/11/09 01:23:58;;;;;;;3.33;2.30;;;9.20;99.90;;;;;;5099093;28;20245;-62
2023/11/09 01:26:25;;;;;;;2.55;2.10;;;9.20;99.90;;;;;;5099160;28;20208;-62
2023/11/09 01:28:51;;;;;;;4.10;2.70;;;9.20;99.90;;;;;;5098587;28;20196;-63
2023/11/09 01:31:19;;;;;;;2.95;2.33;;;9.20;99.90;;;;;;5098491;28;20204;-64
2023/11/09 01:33:46;;;;;;;3.20;2.20;;;9.20;99.90;;;;;;5098664;28;20224;-63
2023/11/09 01:36:14;;;;;;;2.42;1.80;;;9.20;99.90;;;;;;5101175;28;20228;-64
2023/11/09 01:38:42;;;;;;;6.40;2.30;;;9.10;99.90;;;;;;5099290;28;20226;-64
2023/11/09 01:41:09;;;;;;;2.58;2.38;;;9.20;99.90;;;;;;5098282;28;20204;-64
2023/11/09 01:43:36;;;;;;;4.07;2.15;;;9.20;99.90;;;;;;5097300;28;20266;-62
2023/11/09 01:46:04;;;;;;;4.15;2.40;;;9.20;99.90;;;;;;5098246;28;20200;-61
2023/11/09 01:48:34;;;;;;;2.65;2.28;;;9.10;99.90;;;;;;5096836;28;20196;-63
2023/11/09 01:51:02;;;;;;;3.25;2.20;;;9.10;99.90;;;;;;5097817;28;20192;-63
2023/11/09 01:53:30;;;;;;;4.05;2.40;;;9.10;99.90;;;;;;5098326;28;20216;-62
2023/11/09 01:55:58;;;;;;;2.58;2.35;;;9.10;99.90;;;;;;5097719;28;20200;-64
2023/11/09 01:58:25;;;;;;;3.13;2.17;;;9.10;99.90;;;;;;5098626;28;20235;-63
2023/11/09 02:00:54;;;;;;;3.25;2.15;;;9.10;99.90;;;;;;5096371;28;20200;-62
2023/11/09 02:03:21;;;;;;;3.22;2.60;;;9.10;99.90;;;;;;5096531;28;20274;-63
2023/11/09 02:05:50;;;;;;;2.63;1.90;;;9.10;99.90;;;;;;5096409;28;20279;-62
2023/11/09 02:08:18;;;;;;;3.60;2.30;;;9.10;99.90;;;;;;5096506;28;20611;-63
2023/11/09 02:10:45;;;;;;;3.17;2.15;;;9.10;99.90;;;;;;5097810;28;20208;-64
2023/11/09 02:13:12;;;;;;;3.00;2.70;;;9.10;99.90;;;;;;5102143;28;20221;-63
2023/11/09 02:15:39;;;;;;;3.65;2.40;;;9.10;99.90;;;;;;5099732;28;20223;-63
2023/11/09 02:18:06;;;;;;;2.40;2.20;;;9.20;99.90;;;;;;5100623;28;20224;-63
2023/11/09 02:20:33;;;;;;;2.80;2.60;;;9.20;99.90;;;;;;5101429;28;20578;-63
2023/11/09 02:23:02;;;;;;;3.40;2.13;;;9.10;99.90;;;;;;5098084;28;20223;-62
2023/11/09 02:25:31;;;;;;;3.90;2.67;;;9.20;99.90;;;;;;5098255;28;20250;-64
2023/11/09 02:27:57;;;;;;;2.22;2.03;;;9.20;99.90;;;;;;5098729;28;20287;-63
2023/11/09 02:30:24;;;;;;;3.95;2.10;;;9.20;99.90;;;;;;5100724;28;20201;-62
2023/11/09 02:32:51;;;;;;;2.60;2.40;;;9.20;99.90;;;;;;5103019;28;20223;-63
2023/11/09 02:35:19;;;;;;;3.10;2.07;;;9.20;99.90;;;;;;5100450;28;20196;-63
2023/11/09 02:37:46;;;;;;;3.47;2.28;;;9.20;99.90;;;;;;5101025;28;20527;-63
2023/11/09 02:40:13;;;;;;;2.42;1.90;;;9.20;99.90;;;;;;5104585;28;20210;-62
2023/11/09 02:42:41;;;;;;;2.83;2.28;;;9.20;99.90;;;;;;5103021;28;20231;-62
2023/11/09 02:45:09;;;;;;;2.80;2.47;;;9.20;99.90;;;;;;5096976;28;20207;-63
2023/11/09 02:47:35;;;;;;;4.00;2.90;;;9.20;99.90;;;;;;5096703;28;20477;-63
2023/11/09 02:50:03;;;;;;;3.80;2.50;;;9.20;99.90;;;;;;5097367;28;20608;-63
2023/11/09 02:52:31;;;;;;;1.92;1.83;;;9.20;99.90;;;;;;5096329;28;20507;-62
2023/11/09 02:54:59;;;;;;;2.97;2.10;;;9.20;99.90;;;;;;5095782;28;20224;-63
2023/11/09 02:57:26;;;;;;;2.63;2.38;;;9.20;99.90;;;;;;5095616;28;20318;-63
2023/11/09 02:59:55;;;;;;;3.00;2.10;;;9.20;99.90;;;;;;5095995;28;20196;-64
2023/11/09 03:02:22;;;;;;;2.65;2.25;;;9.20;99.90;;;;;;5095859;28;20224;-64
2023/11/09 03:04:49;;;;;;;2.35;1.95;;;9.20;99.90;;;;;;5097899;28;20205;-63
2023/11/09 03:07:16;;;;;;;4.82;2.20;;;9.20;99.90;;;;;;5098628;28;20200;-63
2023/11/09 03:09:44;;;;;;;2.10;1.90;;;9.20;99.90;;;;;;5096834;28;20284;-63
2023/11/09 03:12:11;;;;;;;2.30;1.65;;;9.20;99.90;;;;;;5096767;28;20501;-63
2023/11/09 03:14:39;;;;;;;3.45;1.92;;;9.20;99.90;;;;;;5096179;28;20708;-63
2023/11/09 03:17:09;;;;;;;2.70;2.20;;;9.20;99.90;;;;;;5096645;28;20205;-63
2023/11/09 03:19:36;;;;;;;2.95;2.08;;;9.20;99.90;;;;;;5097051;28;20251;-61
2023/11/09 03:22:03;;;;;;;1.77;1.63;;;9.20;99.90;;;;;;5098349;28;20321;-63
2023/11/09 03:24:32;;;;;;;3.85;2.10;;;9.20;99.90;;;;;;5097892;28;20291;-63
2023/11/09 03:26:58;;;;;;;2.42;1.88;;;9.20;99.90;;;;;;5097091;28;20553;-63
2023/11/09 03:29:25;;;;;;;2.20;1.60;;;9.20;99.90;;;;;;5096480;28;20207;-63
2023/11/09 03:31:52;;;;;;;1.92;1.83;;;9.20;99.90;;;;;;5096937;28;20220;-63
2023/11/09 03:34:20;;;;;;;1.83;1.73;;;9.20;99.90;;;;;;5099506;28;20216;-62
2023/11/09 03:36:47;;;;;;;2.20;2.00;;;9.20;99.90;;;;;;5098978;28;20206;-62
2023/11/09 03:39:14;;;;;;;2.05;1.85;;;9.20;99.90;;;;;;5097750;28;20223;-64
2023/11/09 03:41:43;;;;;;;1.83;1.70;;;9.20;99.90;;;;;;5097040;28;20210;-63
2023/11/09 03:44:10;;;;;;;3.00;1.85;;;9.20;99.90;;;;;;5097863;28;20203;-63
2023/11/09 03:46:38;;;;;;;2.10;1.85;;;9.20;99.90;;;;;;5098306;28;20211;-62
2023/11/09 03:49:07;;;;;;;2.20;1.70;;;9.20;99.90;;;;;;5097870;28;20192;-62
2023/11/09 03:51:35;;;;;;;2.78;1.70;;;9.20;99.90;;;;;;5096877;28;20201;-63
2023/11/09 03:54:03;;;;;;;2.25;1.80;;;9.20;99.90;;;;;;5096783;28;20235;-63
2023/11/09 03:56:29;;;;;;;2.58;2.35;;;9.20;99.90;;;;;;5095960;28;20200;-63
2023/11/09 03:58:56;;;;;;;6.10;2.58;;;9.20;99.90;;;;;;5095521;28;20632;-63
2023/11/09 04:01:23;;;;;;;2.70;1.98;;;9.20;99.90;;;;;;5095887;28;20575;-64
2023/11/09 04:03:51;;;;;;;4.50;2.00;;;9.20;99.90;;;;;;5098260;28;20203;-63
2023/11/09 04:06:17;;;;;;;4.78;2.33;;;9.20;99.90;;;;;;5099054;28;20204;-62
2023/11/09 04:08:46;;;;;;;2.75;2.20;;;9.20;99.90;;;;;;5098571;28;20569;-64
2023/11/09 04:12:31;;;;;;;2.65;2.10;;;9.20;99.90;;;;;;5117498;27;20592;-62
2023/11/09 04:14:58;;;;;;;2.30;2.03;;;9.20;99.90;;;;;;5115356;28;20208;-63
2023/11/09 04:17:26;;;;;;;2.40;2.10;;;9.20;99.90;;;;;;5112732;28;20669;-63
2023/11/09 04:19:53;;;;;;;2.75;2.10;;;9.20;99.90;;;;;;5112637;28;20299;-62
2023/11/09 04:22:19;;;;;;;2.85;2.47;;;9.20;99.90;;;;;;5111892;28;20211;-62
2023/11/09 04:24:46;;;;;;;6.00;4.18;;;9.20;99.90;;;;;;5111874;28;20579;-63
2023/11/09 04:27:13;;;;;;;2.08;1.88;;;9.20;99.90;;;;;;5111557;28;20200;-62
2023/11/09 04:29:42;;;;;;;4.35;2.33;;;9.20;99.90;;;;;;5112500;28;20573;-62
2023/11/09 04:32:09;;;;;;;2.65;2.20;;;9.20;99.90;;;;;;5114205;28;20219;-62
2023/11/09 04:34:36;;;;;;;2.88;2.60;;;9.20;99.90;;;;;;5116073;28;20283;-63
2023/11/09 04:37:03;;;;;;;3.97;2.40;;;9.20;99.90;;;;;;5115529;28;20253;-62
2023/11/09 04:39:31;;;;;;;2.50;2.30;;;9.20;99.90;;;;;;5112388;28;20687;-62
2023/11/09 04:41:58;;;;;;;3.13;2.70;;;9.20;99.90;;;;;;5112318;28;20306;-63
2023/11/09 04:44:26;;;;;;;4.70;2.20;;;9.20;99.90;;;;;;5111616;28;20223;-62
2023/11/09 04:46:55;;;;;;;5.10;2.47;;;9.20;99.90;;;;;;5111350;28;20203;-63
2023/11/09 04:49:22;;;;;;;2.50;2.10;;;9.20;99.90;;;;;;5111311;28;20446;-62
2023/11/09 04:51:50;;;;;;;4.63;2.25;;;9.20;99.90;;;;;;5110370;28;20485;-63
2023/11/09 04:54:19;;;;;;;4.77;2.73;;;9.20;99.90;;;;;;5110716;28;20203;-62
2023/11/09 05:07:41;;;;;;;5.45;2.45;;;9.20;99.90;;;;;;5110497;28;20182;-62
2023/11/09 05:10:08;;;;;;;2.30;1.90;;;9.20;99.90;;;;;;5110540;28;20203;-62
2023/11/09 05:12:35;;;;;;;2.92;2.22;;;9.20;99.90;;;;;;5110295;28;20602;-62
2023/11/09 05:15:02;;;;;;;2.97;2.00;;;9.20;99.90;;;;;;5110344;28;20206;-62
2023/11/09 05:17:31;;;;;;;3.70;2.70;;;9.20;99.90;;;;;;5110197;28;20493;-62
2023/11/09 05:19:58;;;;;;;4.43;2.58;;;9.20;99.90;;;;;;5110347;28;20554;-63
2023/11/09 05:22:26;;;;;;;2.90;2.70;;;9.20;99.90;;;;;;5105884;28;20227;-62
2023/11/09 05:24:53;;;;;;;6.65;2.65;;;9.20;99.90;;;;;;5098968;28;20204;-63
2023/11/09 05:27:20;;;;;;;2.40;2.08;;;9.20;99.90;;;;;;5099148;28;20204;-62
2023/11/09 05:29:47;;;;;;;2.80;2.13;;;9.20;99.90;;;;;;5098299;28;20291;-61
2023/11/09 05:32:14;;;;;;;5.53;2.72;;;9.20;99.90;;;;;;5098173;28;20224;-61
2023/11/09 05:34:42;;;;;;;3.88;2.50;;;9.20;99.90;;;;;;5097250;28;20200;-62
2023/11/09 05:37:09;;;;;;;3.38;2.60;;;9.20;99.90;;;;;;5097575;28;20254;-62
2023/11/09 05:39:36;;;;;;;2.58;2.38;;;9.20;99.90;;;;;;5096397;28;20572;-63
2023/11/09 05:42:03;;;;;;;3.08;2.78;;;9.30;99.90;;;;;;5096599;28;20709;-62
2023/11/09 05:44:30;;;;;;;4.47;2.55;;;9.30;99.90;;;;;;5097167;28;20232;-61
2023/11/09 05:46:57;;;;;;;4.50;2.65;;;9.30;99.90;;;;;;5096804;28;20273;-62
2023/11/09 05:49:24;;;;;;;3.30;2.45;;;9.30;99.90;;;;;;5096894;28;20219;-67
2023/11/09 05:51:53;;;;;;;3.00;1.92;;;9.30;99.90;;;;;;5096039;28;20228;-62
2023/11/09 05:54:20;;;;;;;3.20;2.20;;;9.30;99.90;;;;;;5097208;28;20648;-62
2023/11/09 05:56:47;;;;;;;3.13;2.65;;;9.30;99.90;;;;;;5096591;28;20578;-61
2023/11/09 05:59:14;;;;;;;2.95;2.33;;;9.30;99.90;;;;;;5097141;28;20211;-63
2023/11/09 06:01:42;;;;;;;2.50;2.20;;;9.40;99.90;;;;;;5096894;28;20199;-63
2023/11/09 06:04:09;;;;;;;2.78;2.15;;;9.30;99.90;;;;;;5098338;28;20446;-61
2023/11/09 06:06:37;;;;;;;2.25;2.05;;;9.40;99.90;;;;;;5098755;28;20200;-62
2023/11/09 06:09:06;;;;;;;3.80;2.27;;;9.40;99.90;;;;;;5096808;28;20601;-62
2023/11/09 06:11:34;;;;;;;4.43;2.57;;;9.40;99.90;;;;;;5095934;28;20501;-62
2023/11/09 06:14:03;;;;;;;2.80;2.20;;;9.40;99.90;;;;;;5095916;28;20446;-62
2023/11/09 06:16:30;;;;;;;4.13;2.70;;;9.40;99.90;;;;;;5095925;28;20295;-62
2023/11/09 06:18:57;;;;;;;3.40;2.53;;;9.40;99.90;;;;;;5095262;28;20579;-61
2023/11/09 06:21:24;;;;;;;3.20;2.50;;;9.40;99.90;;;;;;5095849;28;20472;-61
2023/11/09 06:23:52;;;;;;;5.50;2.88;;;9.40;99.90;;;;;;5096731;28;20444;-61
2023/11/09 06:26:24;;;;;;;4.80;2.40;;;9.40;99.90;;;;;;5096144;28;20205;-61
2023/11/09 06:28:52;;;;;;;3.15;2.50;;;9.40;99.90;;;;;;5096152;28;20426;-62
2023/11/09 06:31:21;;;;;;;4.13;2.63;;;9.40;99.90;;;;;;5095618;28;20228;-61
2023/11/09 06:33:48;;;;;;;2.97;2.30;;;9.40;99.90;;;;;;5094991;28;20492;-62
2023/11/09 06:36:16;;;;;;;2.60;2.40;;;9.50;99.90;;;;;;5095559;28;20204;-63
2023/11/09 06:38:43;;;;;;;3.20;2.53;;;9.50;99.90;;;;;;5095411;28;20608;-61
2023/11/09 06:41:10;;;;;;;3.97;3.00;;;9.50;99.90;;;;;;5095161;28;20492;-61
2023/11/09 06:43:38;;;;;;;2.80;2.60;;;9.50;99.90;;;;;;5095303;28;20465;-62
2023/11/09 06:46:05;;;;;;;2.42;2.17;;;9.50;99.90;;;;;;5095192;28;20206;-61
2023/11/09 06:48:32;;;;;;;2.83;2.40;;;9.50;99.90;;;;;;5098184;28;20618;-61
2023/11/09 06:50:59;;;;;;;2.85;2.22;;;9.50;99.90;;;;;;5096490;28;20200;-62
2023/11/09 06:53:26;;;;;;;4.77;2.80;;;9.50;99.90;;;;;;5095453;28;20220;-62
2023/11/09 06:55:53;;;;;;;4.00;2.35;;;9.50;99.90;;;;;;5095875;28;20449;-61
2023/11/09 06:58:20;;;;;;;2.40;2.13;;;9.50;99.90;;;;;;5095834;28;20211;-62
2023/11/09 07:00:48;;;;;;;2.37;1.93;;;9.60;99.90;;;;;;5095257;28;20900;-63
2023/11/09 07:03:17;;;;;;;3.17;2.60;;;9.50;99.90;;;;;;5094961;28;20465;-62
2023/11/09 07:05:44;;;;;;;2.85;2.40;;;9.60;99.90;;;;;;5095407;28;20446;-65
2023/11/09 07:08:12;;;;;;;2.20;2.00;;;9.60;99.90;;;;;;5096972;28;20295;-63
2023/11/09 07:10:39;;;;;;;3.00;2.07;;;9.60;99.90;;;;;;5096551;28;20212;-63
2023/11/09 07:13:06;;;;;;;2.00;1.80;;;9.60;99.90;;;;;;5095223;28;20858;-63
2023/11/09 07:15:33;;;;;;;2.70;2.23;;;9.60;99.90;;;;;;5096039;28;20629;-63
2023/11/09 07:18:03;;;;;;;2.60;1.93;;;9.70;99.90;;;;;;5095444;28;20870;-63
2023/11/09 07:20:31;;;;;;;2.13;1.90;;;9.70;99.90;;;;;;5095719;28;20435;-62
2023/11/09 07:23:00;;;;;;;3.47;2.55;;;9.70;99.90;;;;;;5095532;28;20236;-62
2023/11/09 07:25:31;;;;;;;3.07;2.33;;;9.70;99.90;;;;;;5095579;28;20243;-61
2023/11/09 07:27:58;;;;;;;3.70;2.60;;;9.70;99.90;;;;;;5096074;28;20441;-62
2023/11/09 07:30:28;;;;;;;3.67;2.57;;;9.70;99.90;;;;;;5095658;28;20750;-62
2023/11/09 07:32:55;;;;;;;3.40;3.10;;;9.70;99.90;;;;;;5094333;28;20490;-63
2023/11/09 07:35:24;;;;;;;4.10;3.10;;;9.70;99.90;;;;;;5094545;28;20196;-62
2023/11/09 07:37:51;;;;;;;2.95;2.60;;;9.80;99.90;;;;;;5094811;28;20488;-62
2023/11/09 07:40:18;;;;;;;4.63;2.87;;;9.80;99.90;;;;;;5095091;28;20197;-62
2023/11/09 07:42:45;;;;;;;3.40;2.87;;;9.80;99.90;;;;;;5094052;28;20511;-59
2023/11/09 07:45:13;;;;;;;7.10;2.93;;;9.80;99.90;;;;;;5094220;28;20451;-63
2023/11/09 07:47:40;;;;;;;3.50;2.47;;;9.80;99.90;;;;;;5094620;28;20537;-63
2023/11/09 07:50:09;;;;;;;2.97;2.67;;;9.80;99.90;;;;;;5095285;28;20445;-61
2023/11/09 07:52:38;;;;;;;4.10;2.40;;;9.80;99.90;;;;;;5094824;28;20485;-62
2023/11/09 07:55:07;;;;;;;3.37;2.43;;;9.80;99.90;;;;;;5096204;28;20532;-62
2023/11/09 07:57:35;;;;;;;5.15;2.30;;;9.80;99.90;;;;;;5095668;28;20442;-61
2023/11/09 08:00:04;;;;;;;2.30;2.10;;;9.80;99.90;;;;;;5094836;28;20250;-62
2023/11/09 08:02:31;;;;;;;2.37;2.13;;;9.80;99.90;;;;;;5094375;28;20639;-62
2023/11/09 08:04:58;;;;;;;3.90;2.30;;;9.80;99.90;;;;;;5096636;28;20442;-61
2023/11/09 08:07:25;;;;;;;5.90;3.10;;;9.80;99.90;;;;;;5097321;28;20200;-62
2023/11/09 08:09:53;;;;;;;3.47;2.67;;;9.90;99.90;;;;;;5101971;28;20438;-61
2023/11/09 08:12:23;;;;;;;2.47;2.27;;;9.90;99.90;;;;;;5104777;28;20490;-62
2023/11/09 08:14:50;;;;;;;5.05;2.80;;;9.90;99.90;;;;;;5106737;28;20442;-60
2023/11/09 08:17:17;;;;;;;5.05;2.85;;;9.90;99.90;;;;;;5106072;28;20345;-61
2023/11/09 08:19:45;;;;;;;2.50;2.10;;;9.90;99.90;;;;;;5106349;28;20200;-61
2023/11/09 08:22:12;;;;;;;5.20;2.50;;;10.00;99.90;;;;;;5108096;28;20489;-60
2023/11/09 08:24:38;;;;;;;4.73;2.37;;;10.00;99.90;;;;;;5108844;28;20509;-61
2023/11/09 08:27:07;;;;;;;3.53;2.27;;;10.00;99.90;;;;;;5102497;28;20446;-61
2023/11/09 08:29:35;;;;;;;2.60;2.40;;;10.00;99.90;;;;;;5095519;28;20826;-62
2023/11/09 08:32:03;;;;;;;5.23;2.50;;;10.00;99.90;;;;;;5094178;28;20224;-60
2023/11/09 08:34:30;;;;;;;2.10;1.90;;;10.00;99.90;;;;;;5095152;28;20470;-60
2023/11/09 08:36:58;;;;;;;2.90;2.60;;;10.10;99.90;;;;;;5094426;28;20438;-61
2023/11/09 08:39:26;;;;;;;2.63;1.90;;;10.10;99.90;;;;;;5100650;28;20446;-61
2023/11/09 08:41:55;;;;;;;2.47;1.90;;;10.10;99.90;;;;;;5096844;28;20507;-60
2023/11/09 08:44:23;;;;;;;3.33;2.40;;;10.20;99.90;;;;;;5094443;28;20442;-61
2023/11/09 08:46:50;;;;;;;4.53;2.40;;;10.20;99.90;;;;;;5094870;28;20207;-62
2023/11/09 08:49:18;;;;;;;2.23;1.97;;;10.30;99.90;;;;;;5093819;28;21022;-62
2023/11/09 08:51:44;;;;;;;2.13;1.77;;;10.30;99.90;;;;;;5095482;28;20570;-61
2023/11/09 08:54:12;;;;;;;2.33;2.13;;;10.40;99.90;;;;;;5095092;28;20530;-61
2023/11/09 08:56:39;;;;;;;2.30;2.10;;;10.40;99.90;;;;;;5094465;28;20442;-61
2023/11/09 08:59:06;;;;;;;2.67;1.87;;;10.50;99.90;;;;;;5098520;28;20448;-61
2023/11/09 09:01:34;;;;;;;2.30;2.10;;;10.50;99.90;;;;;;5098380;28;20446;-61
2023/11/09 09:04:03;;;;;;;3.73;2.23;;;10.60;99.90;;;;;;5098216;28;20464;-61
2023/11/09 09:06:30;;;;;;;5.13;2.50;;;10.60;99.90;;;;;;5098503;28;20879;-60
2023/11/09 09:08:59;;;;;;;2.40;2.20;;;10.70;99.90;;;;;;5098172;28;20442;-61
2023/11/09 09:11:26;;;;;;;2.30;2.10;;;10.70;99.90;;;;;;5097624;28;20557;-61
2023/11/09 09:13:53;;;;;;;4.40;1.63;;;10.70;99.90;;;;;;5097579;28;20501;-60
2023/11/09 09:16:20;;;;;;;2.00;1.80;;;10.70;99.90;;;;;;5097237;28;20472;-61
2023/11/09 09:18:49;;;;;;;2.27;1.97;;;10.60;99.90;;;;;;5097412;28;20461;-61
2023/11/09 09:21:17;;;;;;;3.83;1.80;;;10.60;99.90;;;;;;5097717;28;20504;-61
2023/11/09 09:23:44;;;;;;;4.87;2.00;;;10.60;99.90;;;;;;5097003;28;20463;-61
2023/11/09 09:26:11;;;;;;;3.00;2.40;;;10.50;99.90;;;;;;5096654;28;20447;-60
2023/11/09 09:28:40;;;;;;;3.13;2.40;;;10.40;99.90;;;;;;5099228;28;20466;-61
2023/11/09 09:31:07;;;;;;;2.87;1.80;;;10.40;99.90;;;;;;5100523;28;20521;-61
2023/11/09 09:33:35;;;;;;;2.33;2.13;;;10.30;99.90;;;;;;5100021;28;20859;-61
2023/11/09 09:36:05;;;;;;;3.20;2.17;;;10.30;99.90;;;;;;5099717;28;20469;-60
2023/11/09 09:38:34;;;;;;;4.93;2.80;;;10.30;99.90;;;;;;5097966;28;20450;-61
2023/11/09 09:41:05;;;;;;;3.63;2.30;;;10.40;99.90;;;;;;5096651;28;20443;-62
2023/11/09 09:43:38;;;;;;;3.10;2.10;;;10.40;99.90;;;;;;5096728;28;20454;-61
2023/11/09 09:46:08;;;;;;;2.80;2.30;;;10.40;99.90;;;;;;5096960;28;20505;-61
2023/11/09 09:48:37;;;;;;;3.57;1.90;;;10.40;99.90;;;;;;5097115;28;20832;-61
2023/11/09 09:51:09;;;;;;;2.43;2.20;;;10.40;99.90;;;;;;5096554;28;20533;-63
2023/11/09 09:53:38;;;;;;;2.43;2.23;;;10.40;99.90;;;;;;5097005;28;20484;-61
2023/11/09 09:56:07;;;;;;;2.33;2.10;;;10.40;99.90;;;;;;5097359;28;20538;-62
2023/11/09 09:58:35;;;;;;;2.87;2.57;;;10.30;99.90;;;;;;5097108;28;20450;-62
2023/11/09 10:01:03;;;;;;;2.23;2.03;;;10.30;99.90;;;;;;5096897;28;20438;-62
2023/11/09 10:03:33;;;;;;;2.50;2.30;;;10.30;99.90;;;;;;5100324;28;20451;-61
2023/11/09 10:06:00;;;;;;;2.10;1.70;;;10.30;99.90;;;;;;5100073;28;20438;-61
2023/11/09 10:08:29;;;;;;;3.90;2.33;;;10.20;99.90;;;;;;5098957;28;20446;-61
2023/11/09 10:10:55;;;;;;;2.60;2.00;;;10.20;99.90;;;;;;5097770;28;20466;-62
2023/11/09 10:13:24;;;;;;;2.37;2.17;;;10.20;99.90;;;;;;5096012;28;20524;-61
2023/11/09 10:15:56;;;;;;;1.90;1.80;;;10.10;99.90;;;;;;5097605;28;20454;-64
2023/11/09 10:18:26;;;;;;;2.10;1.87;;;10.20;99.90;;;;;;5097122;28;20433;-62
2023/11/09 10:20:57;;;;;;;2.53;2.33;;;10.20;99.90;;;;;;5096298;28;20453;-62
2023/11/09 10:23:25;;;;;;;2.47;2.27;;;10.20;99.90;;;;;;5096566;28;20545;-60
2023/11/09 10:25:55;;;;;;;3.47;2.10;;;10.20;99.90;;;;;;5095684;28;20446;-61
2023/11/09 10:28:24;;;;;;;3.63;3.00;;;10.20;99.90;;;;;;5096457;28;20441;-61
2023/11/09 10:30:53;;;;;;;2.30;2.10;;;10.30;99.90;;;;;;5096275;28;20473;-60
2023/11/09 10:33:19;;;;;;;3.20;2.30;;;10.30;99.90;;;;;;5097277;28;20478;-60
2023/11/09 10:35:47;;;;;;;3.63;2.13;;;10.30;99.90;;;;;;5098149;28;20506;-61
2023/11/09 10:38:20;;;;;;;1.80;1.47;;;10.40;99.90;;;;;;5102166;28;20449;-62
2023/11/09 10:40:47;;;;;;;1.60;1.50;;;10.40;99.90;;;;;;5097148;28;20480;-62
2023/11/09 10:43:16;;;;;;;1.73;1.63;;;10.50;99.90;;;;;;5097825;28;20463;-61
2023/11/09 10:45:44;;;;;;;1.80;1.50;;;10.50;99.90;;;;;;5097070;28;20449;-61
2023/11/09 10:48:17;;;;;;;3.00;1.70;;;10.50;99.90;;;;;;5097428;28;20492;-60
2023/11/09 10:50:47;;;;;;;3.23;2.03;;;10.50;99.90;;;;;;5097877;28;20514;-63
2023/11/09 10:53:15;;;;;;;2.40;1.93;;;10.60;99.90;;;;;;5096252;28;20979;-61
2023/11/09 10:55:43;;;;;;;2.00;1.40;;;10.50;99.90;;;;;;5097163;28;20443;-62
2023/11/09 10:58:12;;;;;;;3.27;1.30;;;10.50;99.90;;;;;;5096616;28;20449;-64
2023/11/09 11:00:43;;;;;;;3.03;1.63;;;10.50;99.90;;;;;;5095839;28;20504;-61
2023/11/09 11:03:16;;;;;;;1.60;1.50;;;10.50;99.90;;;;;;5096030;28;20516;-61
2023/11/09 11:05:47;;;;;;;2.50;1.50;;;10.50;99.90;;;;;;5096596;28;20445;-60
2023/11/09 11:08:19;;;;;;;1.80;1.17;;;10.40;99.90;;;;;;5098273;28;20434;-61
2023/11/09 11:10:51;;;;;;;3.50;1.60;;;10.40;99.90;;;;;;5096707;28;20543;-62
2023/11/09 11:13:19;;;;;;;1.83;1.20;;;10.40;99.90;;;;;;5097273;28;20486;-61
2023/11/09 11:16:03;;;;;;;3.23;2.63;;;10.40;99.90;;;;;;5096081;28;20471;-62
2023/11/09 11:18:49;;;;;;;2.03;1.67;;;10.40;99.90;;;;;;5099579;28;20423;-62
2023/11/09 11:21:27;;;;;;;2.00;1.20;;;10.40;99.90;;;;;;5102724;28;20488;-62
2023/11/09 11:24:21;;;;;;;2.30;1.57;;;10.40;99.90;;;;;;5101011;28;20458;-62
2023/11/09 11:27:01;;;;;;;2.03;1.83;;;10.30;99.90;;;;;;5070122;28;20453;-61
2023/11/09 11:29:28;;;;;;;2.13;1.23;;;10.30;99.90;;;;;;5097888;28;20830;-61
2023/11/09 11:31:57;;;;;;;2.80;1.00;;;10.40;99.90;;;;;;5098740;28;20465;-63
2023/11/09 11:34:46;;;;;;;2.00;1.33;;;10.40;99.90;;;;;;5099943;28;20987;-61
2023/11/09 11:37:17;;;;;;;1.80;1.47;;;10.30;99.90;;;;;;5099275;28;20506;-61
2023/11/09 11:39:43;;;;;;;2.17;1.80;;;10.30;99.90;;;;;;5099284;28;20518;-61
2023/11/09 11:42:17;;;;;;;2.10;1.07;;;10.30;99.90;;;;;;5099243;28;20462;-61
2023/11/09 11:44:49;;;;;;;1.53;1.23;;;10.30;99.90;;;;;;5100163;28;20540;-61
2023/11/09 11:47:18;;;;;;;1.20;1.10;;;10.30;99.90;;;;;;5098741;28;20423;-62
2023/11/09 11:49:48;;;;;;;2.30;1.53;;;10.30;99.90;;;;;;5099048;28;20781;-62
2023/11/09 11:52:19;;;;;;;3.00;1.90;;;10.40;99.90;;;;;;5102895;28;20963;-61
2023/11/09 11:54:46;;;;;;;2.73;1.60;;;10.40;99.90;;;;;;5101834;28;20516;-61
2023/11/09 11:57:15;;;;;;;2.57;2.37;;;10.40;99.90;;;;;;5103494;28;20521;-63
2023/11/09 11:59:44;;;;;;;2.80;2.03;;;10.50;99.90;;;;;;5103698;28;20567;-62
2023/11/09 12:02:12;;;;;;;1.43;1.33;;;10.50;99.90;;;;;;5101198;28;20509;-61
2023/11/09 12:04:47;;;;;;;2.43;1.87;;;10.60;99.90;;;;;;5100402;28;20446;-62
2023/11/09 12:07:18;;;;;;;3.23;1.70;;;10.50;99.90;;;;;;5102157;28;20791;-62
2023/11/09 12:09:47;;;;;;;1.87;1.57;;;10.60;99.90;;;;;;5108097;28;20427;-60
2023/11/09 12:12:15;;;;;;;4.60;1.90;;;10.60;99.90;;;;;;5106214;28;20474;-62
2023/11/09 12:14:43;;;;;;;1.90;1.70;;;10.70;99.90;;;;;;5100242;28;20569;-61
2023/11/09 12:17:10;;;;;;;2.47;1.53;;;10.70;99.90;;;;;;5096265;28;20450;-63
2023/11/09 12:19:37;;;;;;;1.97;1.77;;;10.70;99.90;;;;;;5096335;28;20481;-62
2023/11/09 12:22:07;;;;;;;1.87;1.30;;;10.60;99.90;;;;;;5095745;28;20454;-61
2023/11/09 12:24:35;;;;;;;4.23;1.60;;;10.60;99.90;;;;;;5096323;28;20450;-60
2023/11/09 12:27:05;;;;;;;2.43;1.40;;;10.60;99.90;;;;;;5095680;28;20542;-62
2023/11/09 12:29:32;;;;;;;2.70;1.50;;;10.60;99.90;;;;;;5096160;28;20431;-61
2023/11/09 12:31:59;;;;;;;2.40;1.93;;;10.60;99.90;;;;;;5095981;28;20461;-62
2023/11/09 12:34:26;;;;;;;2.80;1.80;;;10.70;99.90;;;;;;5100796;28;20478;-61
2023/11/09 12:36:54;;;;;;;2.33;2.00;;;10.80;99.90;;;;;;5099073;28;20461;-60
2023/11/09 12:39:29;;;;;;;1.60;1.40;;;10.90;99.90;;;;;;5099335;28;20505;-62
2023/11/09 12:41:56;;;;;;;1.53;1.43;;;11.00;99.90;;;;;;5099238;28;20472;-60
2023/11/09 12:44:24;;;;;;;1.50;1.33;;;11.10;99.90;;;;;;5103590;28;20441;-61
2023/11/09 12:46:53;;;;;;;2.13;1.70;;;11.10;99.90;;;;;;5101769;28;20446;-62
2023/11/09 12:49:22;;;;;;;1.50;1.40;;;11.10;99.90;;;;;;5104193;28;20802;-62
2023/11/09 12:51:50;;;;;;;1.90;1.50;;;11.20;99.90;;;;;;5106097;28;20469;-61
2023/11/09 12:54:18;;;;;;;1.70;1.60;;;11.30;99.90;;;;;;5103224;28;20480;-61
2023/11/09 12:56:48;;;;;;;1.60;1.50;;;11.30;99.90;;;;;;5100414;28;20438;-62
2023/11/09 12:59:24;;;;;;;3.10;2.43;;;11.40;99.90;;;;;;5099771;28;20423;-61
2023/11/09 13:01:52;;;;;;;2.37;1.80;;;11.30;99.90;;;;;;5099536;28;20839;-61
2023/11/09 13:04:21;;;;;;;1.50;1.40;;;11.30;99.90;;;;;;5098939;28;20445;-61
2023/11/09 13:06:49;;;;;;;2.57;1.90;;;11.30;99.90;;;;;;5099279;28;20450;-62
2023/11/09 13:09:34;;;;;;;5.43;3.33;;;11.30;99.90;;;;;;5099086;28;20446;-61